CheckWX is a tool to help pilots better visualize weather data.  It is not intended as a substitute for an official pre-flight weather briefing.

20:15:44 UTC

ZSOF TAF
Hefei Luogang International Airport
Hefei, China
TAF ZSOF 251501Z 2518/2618 11003MPS 3000 BR NSC TX30/2607Z TN21/2521Z

Jun-25@
18:00 UTC

Jun-25 @ 18:00 UTC

Jun-26@
18:00 UTC

Jun-26 @ 18:00 UTC

TAF ZSOF 251501Z 2518/2618 11003MPS 3000 BR NSC TX30/2607Z TN21/2521Z
Wind
  • 110° at 6 KTS
Conditions
Mist
Cloud Levels
  • No significant clouds